sensor_id;sensor_type;location;lat;lon;timestamp;pressure;altitude;pressure_sealevel;temperature;humidity
32181;BME280;19172;51.504;3.894;2022-12-29T00:01:07;99773.09;;;16.01;100.00
32181;BME280;19172;51.504;3.894;2022-12-29T00:03:35;99773.53;;;16.60;100.00
32181;BME280;19172;51.504;3.894;2022-12-29T00:06:03;99776.72;;;16.46;100.00
32181;BME280;19172;51.504;3.894;2022-12-29T00:08:31;99776.47;;;16.06;100.00
32181;BME280;19172;51.504;3.894;2022-12-29T00:11:17;99768.84;;;16.43;100.00
32181;BME280;19172;51.504;3.894;2022-12-29T00:13:45;99769.34;;;16.06;100.00
32181;BME280;19172;51.504;3.894;2022-12-29T00:16:33;99758.97;;;16.22;100.00
32181;BME280;19172;51.504;3.894;2022-12-29T00:19:02;99747.25;;;16.03;100.00
32181;BME280;19172;51.504;3.894;2022-12-29T00:21:31;99763.19;;;16.04;100.00
32181;BME280;19172;51.504;3.894;2022-12-29T00:24:20;99769.28;;;16.31;100.00
32181;BME280;19172;51.504;3.894;2022-12-29T00:27:08;99765.13;;;16.24;100.00
32181;BME280;19172;51.504;3.894;2022-12-29T00:29:56;99771.72;;;16.14;100.00
32181;BME280;19172;51.504;3.894;2022-12-29T00:32:42;99773.06;;;16.49;100.00
32181;BME280;19172;51.504;3.894;2022-12-29T00:35:33;99772.81;;;16.08;100.00
32181;BME280;19172;51.504;3.894;2022-12-29T00:38:07;99774.50;;;15.86;100.00
32181;BME280;19172;51.504;3.894;2022-12-29T00:40:54;99734.66;;;15.58;100.00
32181;BME280;19172;51.504;3.894;2022-12-29T00:43:41;99750.16;;;15.72;100.00
32181;BME280;19172;51.504;3.894;2022-12-29T00:46:27;99762.31;;;15.54;100.00
32181;BME280;19172;51.504;3.894;2022-12-29T00:48:56;99767.63;;;15.80;100.00
32181;BME280;19172;51.504;3.894;2022-12-29T00:51:42;99762.22;;;16.07;100.00
32181;BME280;19172;51.504;3.894;2022-12-29T00:54:10;99770.13;;;16.33;100.00
32181;BME280;19172;51.504;3.894;2022-12-29T00:56:38;99776.00;;;16.18;100.00
32181;BME280;19172;51.504;3.894;2022-12-29T00:59:09;99782.84;;;15.52;100.00
32181;BME280;19172;51.504;3.894;2022-12-29T01:01:38;99777.50;;;15.77;100.00
32181;BME280;19172;51.504;3.894;2022-12-29T01:04:07;99781.66;;;15.85;100.00
32181;BME280;19172;51.504;3.894;2022-12-29T01:06:38;99771.38;;;15.75;100.00
32181;BME280;19172;51.504;3.894;2022-12-29T01:09:09;99783.28;;;15.89;100.00
32181;BME280;19172;51.504;3.894;2022-12-29T01:12:15;99758.50;;;16.11;100.00
32181;BME280;19172;51.504;3.894;2022-12-29T01:14:43;99758.16;;;16.20;100.00
32181;BME280;19172;51.504;3.894;2022-12-29T01:17:11;99760.84;;;15.19;100.00
32181;BME280;19172;51.504;3.894;2022-12-29T01:19:39;99750.50;;;15.63;100.00
32181;BME280;19172;51.504;3.894;2022-12-29T01:22:07;99757.50;;;15.39;100.00
32181;BME280;19172;51.504;3.894;2022-12-29T01:24:35;99763.72;;;15.13;100.00
32181;BME280;19172;51.504;3.894;2022-12-29T01:27:03;99766.22;;;15.44;100.00
32181;BME280;19172;51.504;3.894;2022-12-29T01:29:30;99771.09;;;15.31;100.00
32181;BME280;19172;51.504;3.894;2022-12-29T01:31:58;99784.75;;;14.95;100.00
32181;BME280;19172;51.504;3.894;2022-12-29T01:34:26;99763.94;;;14.79;100.00
32181;BME280;19172;51.504;3.894;2022-12-29T01:36:54;99768.00;;;15.70;100.00
32181;BME280;19172;51.504;3.894;2022-12-29T01:39:21;99765.03;;;15.79;100.00
32181;BME280;19172;51.504;3.894;2022-12-29T01:41:49;99758.66;;;16.06;100.00
32181;BME280;19172;51.504;3.894;2022-12-29T01:44:50;99769.66;;;15.48;100.00
32181;BME280;19172;51.504;3.894;2022-12-29T01:47:43;99768.16;;;15.39;100.00
32181;BME280;19172;51.504;3.894;2022-12-29T01:50:27;99776.91;;;15.16;100.00
32181;BME280;19172;51.504;3.894;2022-12-29T01:52:57;99782.25;;;15.16;100.00
32181;BME280;19172;51.504;3.894;2022-12-29T01:55:29;99793.84;;;14.88;100.00
32181;BME280;19172;51.504;3.894;2022-12-29T01:58:03;99780.19;;;14.98;100.00
32181;BME280;19172;51.504;3.894;2022-12-29T02:00:32;99781.66;;;15.34;100.00
32181;BME280;19172;51.504;3.894;2022-12-29T02:03:00;99791.94;;;14.63;100.00
32181;BME280;19172;51.504;3.894;2022-12-29T02:05:51;99781.69;;;15.07;100.00
32181;BME280;19172;51.504;3.894;2022-12-29T02:08:26;99791.56;;;14.75;100.00
32181;BME280;19172;51.504;3.894;2022-12-29T02:10:56;99791.53;;;15.31;100.00
32181;BME280;19172;51.504;3.894;2022-12-29T02:13:27;99794.56;;;14.93;100.00
32181;BME280;19172;51.504;3.894;2022-12-29T02:18:56;99798.09;;;15.21;100.00
32181;BME280;19172;51.504;3.894;2022-12-29T02:33:00;99766.38;;;15.91;100.00
32181;BME280;19172;51.504;3.894;2022-12-29T02:41:03;99763.41;;;16.21;100.00
32181;BME280;19172;51.504;3.894;2022-12-29T02:43:54;99761.16;;;16.34;100.00
32181;BME280;19172;51.504;3.894;2022-12-29T02:49:42;99756.28;;;15.99;100.00
32181;BME280;19172;51.504;3.894;2022-12-29T02:52:20;99753.00;;;15.92;100.00
32181;BME280;19172;51.504;3.894;2022-12-29T02:54:53;99752.66;;;15.76;100.00
32181;BME280;19172;51.504;3.894;2022-12-29T02:59:58;99743.38;;;15.11;100.00
32181;BME280;19172;51.504;3.894;2022-12-29T03:03:04;99760.50;;;15.56;100.00
32181;BME280;19172;51.504;3.894;2022-12-29T03:05:55;99755.16;;;15.30;100.00
32181;BME280;19172;51.504;3.894;2022-12-29T03:08:28;99762.72;;;15.42;100.00
32181;BME280;19172;51.504;3.894;2022-12-29T03:11:03;99758.28;;;15.16;100.00
32181;BME280;19172;51.504;3.894;2022-12-29T03:13:51;99767.44;;;15.08;100.00
32181;BME280;19172;51.504;3.894;2022-12-29T03:16:46;99759.34;;;14.84;100.00
32181;BME280;19172;51.504;3.894;2022-12-29T03:19:35;99759.56;;;15.31;100.00
32181;BME280;19172;51.504;3.894;2022-12-29T03:22:07;99761.91;;;14.60;100.00
32181;BME280;19172;51.504;3.894;2022-12-29T03:25:09;99769.56;;;14.70;100.00
32181;BME280;19172;51.504;3.894;2022-12-29T03:27:56;99768.81;;;14.65;100.00
32181;BME280;19172;51.504;3.894;2022-12-29T03:30:29;99773.63;;;14.82;100.00
32181;BME280;19172;51.504;3.894;2022-12-29T03:33:03;99764.91;;;14.77;100.00
32181;BME280;19172;51.504;3.894;2022-12-29T03:35:37;99777.47;;;15.00;100.00
32181;BME280;19172;51.504;3.894;2022-12-29T03:41:10;99765.34;;;14.91;100.00
32181;BME280;19172;51.504;3.894;2022-12-29T03:43:38;99773.56;;;14.56;100.00
32181;BME280;19172;51.504;3.894;2022-12-29T03:46:07;99769.50;;;14.72;100.00
32181;BME280;19172;51.504;3.894;2022-12-29T03:48:35;99768.50;;;14.48;100.00
32181;BME280;19172;51.504;3.894;2022-12-29T03:51:03;99780.34;;;14.66;100.00
32181;BME280;19172;51.504;3.894;2022-12-29T03:53:31;99768.81;;;14.38;100.00
32181;BME280;19172;51.504;3.894;2022-12-29T03:56:00;99763.13;;;14.19;100.00
32181;BME280;19172;51.504;3.894;2022-12-29T03:58:28;99765.44;;;14.60;100.00
32181;BME280;19172;51.504;3.894;2022-12-29T04:01:15;99770.25;;;14.77;100.00
32181;BME280;19172;51.504;3.894;2022-12-29T04:03:43;99761.34;;;14.49;100.00
32181;BME280;19172;51.504;3.894;2022-12-29T04:06:12;99757.78;;;15.05;100.00
32181;BME280;19172;51.504;3.894;2022-12-29T04:08:50;99751.47;;;15.08;100.00
32181;BME280;19172;51.504;3.894;2022-12-29T04:11:18;99752.22;;;14.57;100.00
32181;BME280;19172;51.504;3.894;2022-12-29T04:13:46;99758.59;;;15.07;100.00
32181;BME280;19172;51.504;3.894;2022-12-29T04:16:18;99767.13;;;14.91;100.00
32181;BME280;19172;51.504;3.894;2022-12-29T04:18:45;99756.38;;;14.66;100.00
32181;BME280;19172;51.504;3.894;2022-12-29T04:21:13;99764.69;;;14.55;100.00
32181;BME280;19172;51.504;3.894;2022-12-29T04:23:43;99755.56;;;14.64;100.00
32181;BME280;19172;51.504;3.894;2022-12-29T04:26:12;99755.13;;;14.77;100.00
32181;BME280;19172;51.504;3.894;2022-12-29T04:29:16;99762.09;;;14.81;99.43
32181;BME280;19172;51.504;3.894;2022-12-29T04:32:02;99767.63;;;14.75;98.94
32181;BME280;19172;51.504;3.894;2022-12-29T04:34:33;99762.28;;;14.75;98.61
32181;BME280;19172;51.504;3.894;2022-12-29T04:37:00;99767.00;;;14.38;99.07
32181;BME280;19172;51.504;3.894;2022-12-29T04:39:29;99758.19;;;14.93;99.97
32181;BME280;19172;51.504;3.894;2022-12-29T04:41:57;99769.69;;;14.94;98.50
32181;BME280;19172;51.504;3.894;2022-12-29T04:44:25;99779.91;;;14.79;98.47
32181;BME280;19172;51.504;3.894;2022-12-29T04:47:19;99770.47;;;14.42;98.21
32181;BME280;19172;51.504;3.894;2022-12-29T04:50:26;99786.22;;;14.48;98.83
32181;BME280;19172;51.504;3.894;2022-12-29T04:53:02;99787.34;;;14.68;99.43
32181;BME280;19172;51.504;3.894;2022-12-29T04:55:30;99780.06;;;14.46;97.33
32181;BME280;19172;51.504;3.894;2022-12-29T04:57:58;99779.47;;;14.65;98.33
32181;BME280;19172;51.504;3.894;2022-12-29T05:00:29;99784.06;;;14.60;98.20
32181;BME280;19172;51.504;3.894;2022-12-29T05:02:57;99780.06;;;14.15;97.50
32181;BME280;19172;51.504;3.894;2022-12-29T05:05:25;99788.41;;;14.34;96.78
32181;BME280;19172;51.504;3.894;2022-12-29T05:07:53;99788.91;;;14.75;97.40
32181;BME280;19172;51.504;3.894;2022-12-29T05:10:21;99787.13;;;13.85;96.68
32181;BME280;19172;51.504;3.894;2022-12-29T05:12:52;99784.78;;;14.65;97.92
32181;BME280;19172;51.504;3.894;2022-12-29T05:15:21;99795.81;;;14.53;97.11
32181;BME280;19172;51.504;3.894;2022-12-29T05:17:50;99795.22;;;14.71;97.15
32181;BME280;19172;51.504;3.894;2022-12-29T05:20:18;99791.38;;;14.54;95.54
32181;BME280;19172;51.504;3.894;2022-12-29T05:22:46;99799.53;;;14.75;95.36
32181;BME280;19172;51.504;3.894;2022-12-29T05:25:14;99809.47;;;14.70;94.33
32181;BME280;19172;51.504;3.894;2022-12-29T05:27:52;99812.06;;;14.72;93.28
32181;BME280;19172;51.504;3.894;2022-12-29T05:30:58;99808.28;;;14.51;94.12
32181;BME280;19172;51.504;3.894;2022-12-29T05:33:27;99803.66;;;14.86;94.56
32181;BME280;19172;51.504;3.894;2022-12-29T05:35:55;99810.91;;;14.80;94.12
32181;BME280;19172;51.504;3.894;2022-12-29T05:38:23;99815.03;;;15.18;92.80
32181;BME280;19172;51.504;3.894;2022-12-29T05:40:51;99826.56;;;14.91;92.63
32181;BME280;19172;51.504;3.894;2022-12-29T05:43:38;99829.94;;;15.24;93.04
32181;BME280;19172;51.504;3.894;2022-12-29T05:46:28;99833.22;;;15.32;91.20
32181;BME280;19172;51.504;3.894;2022-12-29T05:49:08;99828.22;;;14.95;91.33
32181;BME280;19172;51.504;3.894;2022-12-29T05:52:08;99821.50;;;14.83;92.14
32181;BME280;19172;51.504;3.894;2022-12-29T05:54:36;99820.56;;;14.55;93.93
32181;BME280;19172;51.504;3.894;2022-12-29T05:57:09;99832.97;;;14.84;97.41
32181;BME280;19172;51.504;3.894;2022-12-29T05:59:38;99829.50;;;14.53;97.46
32181;BME280;19172;51.504;3.894;2022-12-29T06:02:06;99834.94;;;14.17;98.69
32181;BME280;19172;51.504;3.894;2022-12-29T06:04:35;99851.16;;;14.41;100.00
32181;BME280;19172;51.504;3.894;2022-12-29T06:07:02;99877.91;;;14.65;100.00
32181;BME280;19172;51.504;3.894;2022-12-29T06:09:50;99878.00;;;14.30;100.00
32181;BME280;19172;51.504;3.894;2022-12-29T06:12:19;99877.91;;;14.02;100.00
32181;BME280;19172;51.504;3.894;2022-12-29T06:14:50;99864.94;;;13.90;100.00
32181;BME280;19172;51.504;3.894;2022-12-29T06:17:18;99866.72;;;13.90;100.00
32181;BME280;19172;51.504;3.894;2022-12-29T06:19:46;99856.78;;;14.28;100.00
32181;BME280;19172;51.504;3.894;2022-12-29T06:22:13;99868.03;;;14.70;100.00
32181;BME280;19172;51.504;3.894;2022-12-29T06:24:42;99851.53;;;13.95;100.00
32181;BME280;19172;51.504;3.894;2022-12-29T06:27:10;99853.47;;;13.88;100.00
32181;BME280;19172;51.504;3.894;2022-12-29T06:29:39;99842.03;;;13.86;100.00
32181;BME280;19172;51.504;3.894;2022-12-29T06:32:08;99851.19;;;14.39;100.00
32181;BME280;19172;51.504;3.894;2022-12-29T06:34:39;99850.81;;;14.20;100.00
32181;BME280;19172;51.504;3.894;2022-12-29T06:37:07;99848.94;;;13.92;100.00
32181;BME280;19172;51.504;3.894;2022-12-29T06:39:36;99842.97;;;14.16;100.00
32181;BME280;19172;51.504;3.894;2022-12-29T06:42:08;99843.25;;;14.05;100.00
32181;BME280;19172;51.504;3.894;2022-12-29T06:44:45;99833.63;;;14.01;100.00
32181;BME280;19172;51.504;3.894;2022-12-29T06:47:13;99837.31;;;14.28;100.00
32181;BME280;19172;51.504;3.894;2022-12-29T06:49:41;99844.59;;;13.89;100.00
32181;BME280;19172;51.504;3.894;2022-12-29T06:52:08;99845.41;;;13.91;100.00
32181;BME280;19172;51.504;3.894;2022-12-29T06:54:39;99857.69;;;13.97;100.00
32181;BME280;19172;51.504;3.894;2022-12-29T06:57:07;99848.53;;;13.74;100.00
32181;BME280;19172;51.504;3.894;2022-12-29T06:59:35;99860.50;;;13.57;100.00
32181;BME280;19172;51.504;3.894;2022-12-29T07:02:03;99863.22;;;13.55;100.00
32181;BME280;19172;51.504;3.894;2022-12-29T07:04:30;99863.00;;;13.97;100.00
32181;BME280;19172;51.504;3.894;2022-12-29T07:06:58;99862.28;;;13.90;100.00
32181;BME280;19172;51.504;3.894;2022-12-29T07:09:26;99868.50;;;13.89;100.00
32181;BME280;19172;51.504;3.894;2022-12-29T07:11:54;99863.03;;;13.95;100.00
32181;BME280;19172;51.504;3.894;2022-12-29T07:14:22;99871.94;;;13.94;100.00
32181;BME280;19172;51.504;3.894;2022-12-29T07:16:49;99871.53;;;14.08;100.00
32181;BME280;19172;51.504;3.894;2022-12-29T07:19:17;99860.25;;;14.00;99.93
32181;BME280;19172;51.504;3.894;2022-12-29T07:21:45;99865.66;;;14.29;100.00
32181;BME280;19172;51.504;3.894;2022-12-29T07:24:13;99859.31;;;14.35;99.38
32181;BME280;19172;51.504;3.894;2022-12-29T07:26:41;99853.28;;;14.26;98.99
32181;BME280;19172;51.504;3.894;2022-12-29T07:29:09;99862.19;;;14.25;99.01
32181;BME280;19172;51.504;3.894;2022-12-29T07:31:37;99860.44;;;14.24;98.83
32181;BME280;19172;51.504;3.894;2022-12-29T07:34:04;99850.38;;;14.37;97.79
32181;BME280;19172;51.504;3.894;2022-12-29T07:36:32;99857.47;;;14.67;97.85
32181;BME280;19172;51.504;3.894;2022-12-29T07:39:02;99852.59;;;14.81;97.02
32181;BME280;19172;51.504;3.894;2022-12-29T07:41:30;99858.66;;;14.57;96.19
32181;BME280;19172;51.504;3.894;2022-12-29T07:44:01;99861.81;;;14.70;96.32
32181;BME280;19172;51.504;3.894;2022-12-29T07:46:37;99875.22;;;14.36;95.17
32181;BME280;19172;51.504;3.894;2022-12-29T07:49:23;99864.78;;;14.59;95.47
32181;BME280;19172;51.504;3.894;2022-12-29T07:51:51;99853.09;;;14.65;95.25
32181;BME280;19172;51.504;3.894;2022-12-29T07:54:18;99859.75;;;14.79;96.42
32181;BME280;19172;51.504;3.894;2022-12-29T07:56:46;99864.97;;;14.53;96.25
32181;BME280;19172;51.504;3.894;2022-12-29T07:59:14;99864.97;;;14.53;96.55
32181;BME280;19172;51.504;3.894;2022-12-29T08:01:42;99873.00;;;14.52;95.95
32181;BME280;19172;51.504;3.894;2022-12-29T08:04:10;99880.81;;;14.58;97.45
32181;BME280;19172;51.504;3.894;2022-12-29T08:06:38;99870.28;;;14.22;96.77
32181;BME280;19172;51.504;3.894;2022-12-29T08:09:06;99896.97;;;14.50;98.06
32181;BME280;19172;51.504;3.894;2022-12-29T08:11:43;99898.97;;;13.76;100.00
32181;BME280;19172;51.504;3.894;2022-12-29T08:14:11;99912.47;;;13.68;100.00
32181;BME280;19172;51.504;3.894;2022-12-29T08:16:38;99910.22;;;13.86;100.00
32181;BME280;19172;51.504;3.894;2022-12-29T08:19:09;99914.56;;;13.90;100.00
32181;BME280;19172;51.504;3.894;2022-12-29T08:21:37;99920.63;;;13.59;100.00
32181;BME280;19172;51.504;3.894;2022-12-29T08:24:06;99912.16;;;13.44;100.00
32181;BME280;19172;51.504;3.894;2022-12-29T08:26:34;99925.41;;;13.07;100.00
32181;BME280;19172;51.504;3.894;2022-12-29T08:29:02;99926.50;;;13.73;100.00
32181;BME280;19172;51.504;3.894;2022-12-29T08:31:30;99949.97;;;13.55;100.00
32181;BME280;19172;51.504;3.894;2022-12-29T08:33:58;99949.25;;;13.10;100.00
32181;BME280;19172;51.504;3.894;2022-12-29T08:36:27;99946.38;;;13.93;100.00
32181;BME280;19172;51.504;3.894;2022-12-29T08:38:55;99935.75;;;13.93;100.00
32181;BME280;19172;51.504;3.894;2022-12-29T08:41:23;99952.28;;;13.33;100.00
32181;BME280;19172;51.504;3.894;2022-12-29T08:43:51;99959.47;;;13.65;100.00
32181;BME280;19172;51.504;3.894;2022-12-29T08:46:18;99968.41;;;13.62;100.00
32181;BME280;19172;51.504;3.894;2022-12-29T08:48:47;99968.75;;;13.47;100.00
32181;BME280;19172;51.504;3.894;2022-12-29T08:51:14;99983.84;;;13.04;100.00
32181;BME280;19172;51.504;3.894;2022-12-29T08:53:46;99989.91;;;13.50;100.00
32181;BME280;19172;51.504;3.894;2022-12-29T08:56:14;99998.88;;;13.05;100.00
32181;BME280;19172;51.504;3.894;2022-12-29T08:58:49;99998.41;;;13.27;100.00
32181;BME280;19172;51.504;3.894;2022-12-29T09:01:19;99995.28;;;13.07;100.00
32181;BME280;19172;51.504;3.894;2022-12-29T09:03:47;100013.06;;;13.45;100.00
32181;BME280;19172;51.504;3.894;2022-12-29T09:06:35;100007.31;;;13.63;100.00
32181;BME280;19172;51.504;3.894;2022-12-29T09:09:07;100010.69;;;13.33;100.00
32181;BME280;19172;51.504;3.894;2022-12-29T09:11:35;100018.03;;;13.20;100.00
32181;BME280;19172;51.504;3.894;2022-12-29T09:14:03;100031.06;;;13.71;100.00
32181;BME280;19172;51.504;3.894;2022-12-29T09:16:31;100028.47;;;13.68;100.00
32181;BME280;19172;51.504;3.894;2022-12-29T09:19:00;100036.50;;;13.25;100.00
32181;BME280;19172;51.504;3.894;2022-12-29T09:21:28;100045.88;;;13.43;100.00
32181;BME280;19172;51.504;3.894;2022-12-29T09:23:55;100036.09;;;13.45;100.00
32181;BME280;19172;51.504;3.894;2022-12-29T09:26:23;100045.88;;;13.43;100.00
32181;BME280;19172;51.504;3.894;2022-12-29T09:28:51;100058.69;;;13.24;100.00
32181;BME280;19172;51.504;3.894;2022-12-29T09:31:19;100048.41;;;13.47;100.00
32181;BME280;19172;51.504;3.894;2022-12-29T09:33:47;100061.03;;;13.77;100.00
32181;BME280;19172;51.504;3.894;2022-12-29T09:36:14;100069.81;;;13.81;100.00
32181;BME280;19172;51.504;3.894;2022-12-29T09:38:42;100071.84;;;14.07;100.00
32181;BME280;19172;51.504;3.894;2022-12-29T09:41:29;100062.50;;;13.91;100.00
32181;BME280;19172;51.504;3.894;2022-12-29T09:46:52;100084.19;;;13.71;100.00
32181;BME280;19172;51.504;3.894;2022-12-29T09:52:04;100083.56;;;13.98;100.00
32181;BME280;19172;51.504;3.894;2022-12-29T09:54:55;100099.91;;;14.18;100.00
32181;BME280;19172;51.504;3.894;2022-12-29T09:57:36;100099.66;;;14.29;100.00
32181;BME280;19172;51.504;3.894;2022-12-29T10:00:18;100118.25;;;14.67;100.00
32181;BME280;19172;51.504;3.894;2022-12-29T10:02:54;100124.19;;;14.77;100.00
32181;BME280;19172;51.504;3.894;2022-12-29T10:08:47;100138.56;;;14.70;100.00
32181;BME280;19172;51.504;3.894;2022-12-29T10:11:29;100137.72;;;15.02;100.00
32181;BME280;19172;51.504;3.894;2022-12-29T10:17:29;100146.25;;;14.47;100.00
32181;BME280;19172;51.504;3.894;2022-12-29T10:20:38;100138.78;;;14.95;100.00
32181;BME280;19172;51.504;3.894;2022-12-29T10:23:31;100152.16;;;14.93;100.00
32181;BME280;19172;51.504;3.894;2022-12-29T10:26:03;100157.97;;;15.07;100.00
32181;BME280;19172;51.504;3.894;2022-12-29T10:28:37;100169.44;;;15.11;100.00
32181;BME280;19172;51.504;3.894;2022-12-29T10:31:19;100166.09;;;15.03;100.00
32181;BME280;19172;51.504;3.894;2022-12-29T10:33:59;100169.06;;;15.24;100.00
32181;BME280;19172;51.504;3.894;2022-12-29T10:36:39;100179.50;;;15.64;100.00
32181;BME280;19172;51.504;3.894;2022-12-29T10:42:15;100189.25;;;15.33;100.00
32181;BME280;19172;51.504;3.894;2022-12-29T10:44:46;100187.97;;;15.46;100.00
32181;BME280;19172;51.504;3.894;2022-12-29T10:47:19;100196.78;;;14.83;100.00
32181;BME280;19172;51.504;3.894;2022-12-29T10:49:49;100194.44;;;14.70;100.00
32181;BME280;19172;51.504;3.894;2022-12-29T10:52:19;100200.84;;;15.30;100.00
32181;BME280;19172;51.504;3.894;2022-12-29T10:55:15;100202.25;;;15.11;100.00
32181;BME280;19172;51.504;3.894;2022-12-29T10:57:46;100203.56;;;15.61;100.00
32181;BME280;19172;51.504;3.894;2022-12-29T11:00:20;100209.31;;;15.46;100.00
32181;BME280;19172;51.504;3.894;2022-12-29T11:03:12;100220.34;;;15.65;100.00
32181;BME280;19172;51.504;3.894;2022-12-29T11:05:57;100226.41;;;15.04;100.00
32181;BME280;19172;51.504;3.894;2022-12-29T11:08:38;100214.41;;;14.88;100.00
32181;BME280;19172;51.504;3.894;2022-12-29T11:11:09;100221.19;;;15.33;100.00
32181;BME280;19172;51.504;3.894;2022-12-29T11:13:48;100235.97;;;14.77;100.00
32181;BME280;19172;51.504;3.894;2022-12-29T11:16:35;100224.06;;;14.92;100.00
32181;BME280;19172;51.504;3.894;2022-12-29T11:19:03;100240.13;;;15.22;100.00
32181;BME280;19172;51.504;3.894;2022-12-29T11:21:32;100242.69;;;14.93;100.00
32181;BME280;19172;51.504;3.894;2022-12-29T11:24:03;100241.75;;;14.94;100.00
32181;BME280;19172;51.504;3.894;2022-12-29T11:26:32;100251.75;;;14.84;100.00
32181;BME280;19172;51.504;3.894;2022-12-29T11:31:43;100247.38;;;15.17;100.00
32181;BME280;19172;51.504;3.894;2022-12-29T11:34:25;100256.53;;;15.41;100.00
32181;BME280;19172;51.504;3.894;2022-12-29T11:37:01;100245.56;;;15.84;100.00
32181;BME280;19172;51.504;3.894;2022-12-29T11:42:51;100263.38;;;14.80;100.00
32181;BME280;19172;51.504;3.894;2022-12-29T11:45:25;100254.63;;;15.12;100.00
32181;BME280;19172;51.504;3.894;2022-12-29T11:48:12;100248.22;;;15.53;100.00
32181;BME280;19172;51.504;3.894;2022-12-29T11:50:50;100259.06;;;14.75;100.00
32181;BME280;19172;51.504;3.894;2022-12-29T11:56:00;100264.25;;;15.16;100.00
32181;BME280;19172;51.504;3.894;2022-12-29T11:58:31;100262.22;;;14.92;100.00
32181;BME280;19172;51.504;3.894;2022-12-29T12:01:05;100267.47;;;14.95;100.00
32181;BME280;19172;51.504;3.894;2022-12-29T12:03:40;100270.78;;;15.05;100.00
32181;BME280;19172;51.504;3.894;2022-12-29T12:06:16;100274.66;;;15.25;100.00
32181;BME280;19172;51.504;3.894;2022-12-29T12:09:02;100280.28;;;15.15;100.00
32181;BME280;19172;51.504;3.894;2022-12-29T12:11:42;100276.03;;;15.06;100.00
32181;BME280;19172;51.504;3.894;2022-12-29T12:14:19;100285.59;;;14.78;100.00
32181;BME280;19172;51.504;3.894;2022-12-29T12:17:15;100290.44;;;14.99;100.00
32181;BME280;19172;51.504;3.894;2022-12-29T12:19:57;100292.59;;;14.45;100.00
32181;BME280;19172;51.504;3.894;2022-12-29T12:22:35;100286.56;;;13.93;100.00
32181;BME280;19172;51.504;3.894;2022-12-29T12:25:13;100294.63;;;14.31;100.00
32181;BME280;19172;51.504;3.894;2022-12-29T12:30:41;100287.44;;;14.36;100.00
32181;BME280;19172;51.504;3.894;2022-12-29T12:54:05;100291.44;;;14.57;100.00
32181;BME280;19172;51.504;3.894;2022-12-29T13:10:19;100291.06;;;14.34;100.00
32181;BME280;19172;51.504;3.894;2022-12-29T13:21:52;100286.31;;;14.05;100.00
32181;BME280;19172;51.504;3.894;2022-12-29T13:27:39;100285.28;;;14.12;100.00
32181;BME280;19172;51.504;3.894;2022-12-29T13:30:17;100292.59;;;14.02;100.00
32181;BME280;19172;51.504;3.894;2022-12-29T13:36:10;100280.81;;;14.14;100.00
32181;BME280;19172;51.504;3.894;2022-12-29T13:38:21;100284.94;;;13.86;100.00
32181;BME280;19172;51.504;3.894;2022-12-29T13:40:55;100284.97;;;14.27;100.00
32181;BME280;19172;51.504;3.894;2022-12-29T13:43:27;100287.13;;;14.08;100.00
32181;BME280;19172;51.504;3.894;2022-12-29T13:46:06;100293.88;;;14.24;100.00
32181;BME280;19172;51.504;3.894;2022-12-29T13:48:40;100293.81;;;14.29;100.00
32181;BME280;19172;51.504;3.894;2022-12-29T13:51:12;100289.88;;;14.47;100.00
32181;BME280;19172;51.504;3.894;2022-12-29T13:54:10;100290.47;;;14.18;100.00
32181;BME280;19172;51.504;3.894;2022-12-29T13:56:52;100286.72;;;13.85;100.00
32181;BME280;19172;51.504;3.894;2022-12-29T14:05:15;100311.88;;;13.66;100.00
32181;BME280;19172;51.504;3.894;2022-12-29T14:08:05;100304.31;;;13.45;100.00
32181;BME280;19172;51.504;3.894;2022-12-29T14:10:46;100314.06;;;13.92;100.00
32181;BME280;19172;51.504;3.894;2022-12-29T14:13:20;100310.56;;;13.88;100.00
32181;BME280;19172;51.504;3.894;2022-12-29T14:15:53;100318.72;;;13.79;100.00
32181;BME280;19172;51.504;3.894;2022-12-29T14:18:25;100321.56;;;14.16;100.00
32181;BME280;19172;51.504;3.894;2022-12-29T14:21:17;100326.13;;;14.09;100.00
32181;BME280;19172;51.504;3.894;2022-12-29T14:23:49;100329.28;;;13.84;100.00
32181;BME280;19172;51.504;3.894;2022-12-29T14:30:01;100323.38;;;13.68;100.00
32181;BME280;19172;51.504;3.894;2022-12-29T14:34:58;100330.81;;;13.95;100.00
32181;BME280;19172;51.504;3.894;2022-12-29T14:40:04;100330.81;;;13.48;100.00
32181;BME280;19172;51.504;3.894;2022-12-29T14:42:33;100336.13;;;13.49;100.00
32181;BME280;19172;51.504;3.894;2022-12-29T14:47:48;100349.69;;;13.82;100.00
32181;BME280;19172;51.504;3.894;2022-12-29T14:50:34;100341.34;;;13.54;100.00
32181;BME280;19172;51.504;3.894;2022-12-29T14:53:06;100343.59;;;13.76;100.00
32181;BME280;19172;51.504;3.894;2022-12-29T14:55:54;100353.94;;;13.43;100.00
32181;BME280;19172;51.504;3.894;2022-12-29T14:58:29;100350.84;;;13.68;100.00
32181;BME280;19172;51.504;3.894;2022-12-29T15:00:59;100360.97;;;13.45;100.00
32181;BME280;19172;51.504;3.894;2022-12-29T15:03:46;100365.59;;;13.85;100.00
32181;BME280;19172;51.504;3.894;2022-12-29T15:06:18;100368.13;;;13.42;100.00
32181;BME280;19172;51.504;3.894;2022-12-29T15:09:40;100360.44;;;13.75;100.00
32181;BME280;19172;51.504;3.894;2022-12-29T15:11:50;100362.56;;;12.99;100.00
32181;BME280;19172;51.504;3.894;2022-12-29T15:14:37;100359.66;;;13.70;100.00
32181;BME280;19172;51.504;3.894;2022-12-29T15:17:20;100379.63;;;13.41;100.00
32181;BME280;19172;51.504;3.894;2022-12-29T15:19:50;100376.47;;;13.71;100.00
32181;BME280;19172;51.504;3.894;2022-12-29T15:22:17;100374.69;;;13.19;100.00
32181;BME280;19172;51.504;3.894;2022-12-29T15:24:45;100384.94;;;13.41;100.00
32181;BME280;19172;51.504;3.894;2022-12-29T15:27:17;100378.63;;;13.48;100.00